createdAt,value
2018-07-22T00:02:02.901Z,14.50
2018-07-22T00:05:56.699Z,12.00
2018-07-22T00:09:50.694Z,15.80
2018-07-22T00:13:44.614Z,9.97
2018-07-22T00:17:38.521Z,12.67
2018-07-22T00:21:32.731Z,11.97
2018-07-22T00:25:26.628Z,13.57
2018-07-22T00:29:20.654Z,10.70
2018-07-22T00:33:14.492Z,12.10
2018-07-22T00:37:08.414Z,9.93
2018-07-22T00:41:02.342Z,9.53
2018-07-22T00:44:56.303Z,12.80
2018-07-22T00:48:50.219Z,10.30
2018-07-22T00:52:44.113Z,12.60
2018-07-22T00:56:38.070Z,10.20
2018-07-22T01:00:32.011Z,14.40
2018-07-22T01:04:25.989Z,10.50
2018-07-22T01:08:19.884Z,11.27
2018-07-22T01:12:13.841Z,11.70
2018-07-22T01:16:07.909Z,15.17
2018-07-22T01:20:01.844Z,12.40
2018-07-22T01:23:55.832Z,15.57
2018-07-22T01:27:49.862Z,13.10
2018-07-22T01:31:43.791Z,13.63
2018-07-22T01:35:37.721Z,13.83
2018-07-22T01:39:31.637Z,10.63
2018-07-22T01:43:25.558Z,13.17
2018-07-22T01:47:19.777Z,11.27
2018-07-22T01:51:14.001Z,14.37
2018-07-22T01:55:08.062Z,12.50
2018-07-22T01:59:02.673Z,10.80
2018-07-22T02:02:59.537Z,16.40
2018-07-22T02:06:53.494Z,14.53
2018-07-22T02:10:48.106Z,10.77
2018-07-22T02:14:42.060Z,11.93
2018-07-22T02:18:35.960Z,13.10
2018-07-22T02:22:30.046Z,14.90
2018-07-22T02:26:24.003Z,14.73
2018-07-22T02:30:18.002Z,13.90
2018-07-22T02:34:11.943Z,14.07
2018-07-22T02:38:05.955Z,23.20
2018-07-22T02:41:59.993Z,25.17
2018-07-22T02:45:53.916Z,17.67
2018-07-22T02:49:47.890Z,16.77
2018-07-22T02:53:41.807Z,21.00
2018-07-22T02:57:35.808Z,19.07
2018-07-22T03:01:29.692Z,17.87
2018-07-22T03:05:23.676Z,17.43
2018-07-22T03:09:17.590Z,15.37
2018-07-22T03:13:11.470Z,18.80
2018-07-22T03:17:05.462Z,15.80
2018-07-22T03:20:59.463Z,19.03
2018-07-22T03:24:53.525Z,17.33
2018-07-22T03:28:46.910Z,19.77
2018-07-22T03:32:40.940Z,19.30
2018-07-22T03:36:34.919Z,18.23
2018-07-22T03:40:28.924Z,14.83
2018-07-22T03:44:22.833Z,16.07
2018-07-22T03:48:16.777Z,19.15
2018-07-22T03:52:10.650Z,18.90
2018-07-22T03:56:06.843Z,17.60
2018-07-22T04:00:01.027Z,14.33
2018-07-22T04:03:55.074Z,18.00
2018-07-22T04:07:49.162Z,16.90
2018-07-22T04:11:43.255Z,19.67
2018-07-22T04:15:37.178Z,19.30
2018-07-22T04:19:31.195Z,19.40
2018-07-22T04:23:25.241Z,16.97
2018-07-22T04:27:19.403Z,13.43
2018-07-22T04:31:13.316Z,14.90
2018-07-22T04:35:07.201Z,15.13
2018-07-22T04:39:01.097Z,14.97
2018-07-22T04:42:55.075Z,15.50
2018-07-22T04:46:48.991Z,17.83
2018-07-22T04:50:42.909Z,14.10
2018-07-22T04:54:36.875Z,11.33
2018-07-22T04:58:30.822Z,10.43
2018-07-22T05:02:24.764Z,11.93
2018-07-22T05:06:18.622Z,9.70
2018-07-22T05:10:12.579Z,11.20
2018-07-22T05:14:06.531Z,15.33
2018-07-22T05:18:00.775Z,13.87
2018-07-22T05:21:54.707Z,14.80
2018-07-22T05:25:48.782Z,15.83
2018-07-22T05:29:42.732Z,16.60
2018-07-22T05:33:36.654Z,15.78
2018-07-22T05:37:30.563Z,13.37
2018-07-22T05:41:24.549Z,12.63
2018-07-22T05:45:18.515Z,15.58
2018-07-22T05:49:12.446Z,13.10
2018-07-22T05:53:06.106Z,15.53
2018-07-22T05:56:59.988Z,16.57
2018-07-22T06:00:54.091Z,17.47
2018-07-22T06:04:48.205Z,18.80
2018-07-22T06:08:42.286Z,19.83
2018-07-22T06:12:36.241Z,15.70
2018-07-22T06:16:30.310Z,16.67
2018-07-22T06:20:24.320Z,20.90
2018-07-22T06:24:18.581Z,22.77
2018-07-22T06:28:12.549Z,18.77
2018-07-22T06:32:06.706Z,13.63
2018-07-22T06:36:00.610Z,18.17
2018-07-22T06:39:57.397Z,17.90
2018-07-22T06:43:51.451Z,19.27
2018-07-22T06:47:45.536Z,18.00
2018-07-22T06:51:39.502Z,16.33
2018-07-22T06:55:33.432Z,19.00
2018-07-22T06:59:27.382Z,15.50
2018-07-22T07:03:21.326Z,15.07
2018-07-22T07:07:15.325Z,12.17
2018-07-22T07:11:09.354Z,10.97
2018-07-22T07:15:03.378Z,13.70
2018-07-22T07:18:57.069Z,10.83
2018-07-22T07:22:51.923Z,12.50
2018-07-22T07:26:45.895Z,12.57
2018-07-22T07:30:39.798Z,13.57
2018-07-22T07:34:33.749Z,13.37
2018-07-22T07:38:27.710Z,13.93
2018-07-22T07:42:21.615Z,31.40
2018-07-22T07:46:15.543Z,16.03
2018-07-22T07:50:09.486Z,9.97
2018-07-22T07:54:03.411Z,12.63
2018-07-22T07:57:57.310Z,7.97
2018-07-22T08:01:51.373Z,9.07
2018-07-22T08:05:45.358Z,6.53
2018-07-22T08:09:39.380Z,8.43
2018-07-22T08:13:33.352Z,10.67
2018-07-22T08:17:27.670Z,7.87
2018-07-22T08:21:21.661Z,10.13
2018-07-22T08:25:15.801Z,6.23
2018-07-22T08:29:17.357Z,7.33
2018-07-22T08:33:11.411Z,5.87
2018-07-22T08:37:05.407Z,5.57
2018-07-22T08:40:59.626Z,4.93
2018-07-22T08:44:53.004Z,7.40
2018-07-22T08:48:46.982Z,5.70
2018-07-22T08:52:40.966Z,6.63
2018-07-22T08:56:34.986Z,7.27
2018-07-22T09:00:28.858Z,5.70
2018-07-22T09:04:22.806Z,9.67
2018-07-22T09:08:16.791Z,5.10
2018-07-22T09:12:10.726Z,6.97
2018-07-22T09:16:04.800Z,4.40
2018-07-22T09:19:58.722Z,5.70
2018-07-22T09:23:52.748Z,5.47
2018-07-22T09:27:46.864Z,5.27
2018-07-22T09:31:40.907Z,3.73
2018-07-22T09:35:34.951Z,3.93
2018-07-22T09:39:29.036Z,4.40
2018-07-22T09:43:23.265Z,3.42
2018-07-22T09:47:17.498Z,3.50
2018-07-22T09:51:11.550Z,5.63
2018-07-22T09:55:06.270Z,3.90
2018-07-22T09:59:00.259Z,4.13
2018-07-22T10:02:54.230Z,4.27
2018-07-22T10:06:48.289Z,5.93
2018-07-22T10:10:42.352Z,4.07
2018-07-22T10:14:36.364Z,4.80
2018-07-22T10:18:30.808Z,3.43
2018-07-22T10:22:24.887Z,3.98
2018-07-22T10:26:18.939Z,3.80
2018-07-22T10:30:12.917Z,4.37
2018-07-22T10:34:06.926Z,3.70
2018-07-22T10:38:00.942Z,3.52
2018-07-22T10:41:54.912Z,4.37
2018-07-22T10:45:48.974Z,5.20
2018-07-22T10:49:42.955Z,3.77
2018-07-22T10:53:37.166Z,6.97
2018-07-22T10:57:31.089Z,4.43
2018-07-22T11:01:25.089Z,3.43
2018-07-22T11:05:18.998Z,5.57
2018-07-22T11:09:12.979Z,3.60
2018-07-22T11:13:06.954Z,2.90
2018-07-22T11:17:01.056Z,2.90
2018-07-22T11:20:55.041Z,4.03
2018-07-22T11:24:49.735Z,5.45
2018-07-22T11:28:43.871Z,4.10
2018-07-22T11:32:37.642Z,4.22
2018-07-22T11:36:31.657Z,4.17
2018-07-22T11:40:25.591Z,4.20
2018-07-22T11:44:19.997Z,7.00
2018-07-22T11:48:13.989Z,5.15
2018-07-22T11:52:07.948Z,5.80
2018-07-22T11:56:01.950Z,3.90
2018-07-22T11:59:55.934Z,5.67
2018-07-22T12:03:49.875Z,3.60
2018-07-22T12:07:43.916Z,4.62
2018-07-22T12:11:37.887Z,4.10
2018-07-22T12:15:32.003Z,5.05
2018-07-22T12:19:26.088Z,4.20
2018-07-22T12:23:20.175Z,4.75
2018-07-22T12:27:14.171Z,4.08
2018-07-22T12:31:08.181Z,4.22
2018-07-22T12:35:02.273Z,4.53
2018-07-22T12:38:56.366Z,5.60
2018-07-22T12:42:52.133Z,4.08
2018-07-22T12:46:48.270Z,5.70
2018-07-22T12:50:42.237Z,3.90
2018-07-22T12:54:36.142Z,3.70
2018-07-22T12:58:30.025Z,4.58
2018-07-22T13:02:24.220Z,4.80
2018-07-22T13:06:18.111Z,4.10
2018-07-22T13:10:12.105Z,4.12
2018-07-22T13:14:06.200Z,4.47
2018-07-22T13:18:00.090Z,4.30
2018-07-22T13:21:53.765Z,5.42
2018-07-22T13:25:47.413Z,5.28
2018-07-22T13:29:41.358Z,5.08
2018-07-22T13:33:35.644Z,5.53
2018-07-22T13:37:29.608Z,6.53
2018-07-22T13:41:23.647Z,3.77
2018-07-22T13:45:17.920Z,4.28
2018-07-22T13:49:11.822Z,4.17
2018-07-22T13:53:05.857Z,4.35
2018-07-22T13:56:59.895Z,4.95
2018-07-22T14:00:53.972Z,4.58
2018-07-22T14:04:47.933Z,6.05
2018-07-22T14:08:48.693Z,5.53
2018-07-22T14:12:42.666Z,4.57
2018-07-22T14:16:36.815Z,5.87
2018-07-22T14:20:30.838Z,5.62
2018-07-22T14:24:24.880Z,4.22
2018-07-22T14:28:18.894Z,5.40
2018-07-22T14:32:12.842Z,4.20
2018-07-22T14:36:06.973Z,7.10
2018-07-22T14:40:00.926Z,5.10
2018-07-22T14:43:54.929Z,4.92
2018-07-22T14:47:48.869Z,5.75
2018-07-22T14:51:42.949Z,5.17
2018-07-22T14:55:36.903Z,5.33
2018-07-22T14:59:30.923Z,5.37
2018-07-22T15:03:24.906Z,5.30
2018-07-22T15:07:19.261Z,5.85
2018-07-22T15:11:13.286Z,5.28
2018-07-22T15:15:07.284Z,4.97
2018-07-22T15:19:01.360Z,6.15
2018-07-22T15:22:55.498Z,5.35
2018-07-22T15:26:49.781Z,5.40
2018-07-22T15:30:43.785Z,6.13
2018-07-22T15:34:37.902Z,5.50
2018-07-22T15:38:31.960Z,9.20
2018-07-22T15:42:26.219Z,7.53
2018-07-22T15:46:20.178Z,5.93
2018-07-22T15:50:14.166Z,8.88
2018-07-22T15:54:08.107Z,5.72
2018-07-22T15:58:02.031Z,5.15
2018-07-22T16:01:56.011Z,6.53
2018-07-22T16:05:50.546Z,6.40
2018-07-22T16:09:44.582Z,7.37
2018-07-22T16:13:38.576Z,5.62
2018-07-22T16:17:32.588Z,5.08
2018-07-22T16:21:26.487Z,9.73
2018-07-22T16:25:20.520Z,10.55
2018-07-22T16:29:14.492Z,5.87
2018-07-22T16:33:08.575Z,5.87
2018-07-22T16:37:02.669Z,5.92
2018-07-22T16:40:56.678Z,5.22
2018-07-22T16:44:50.805Z,5.92
2018-07-22T16:48:44.847Z,5.43
2018-07-22T16:52:38.867Z,5.58
2018-07-22T16:56:32.834Z,6.85
2018-07-22T17:00:26.785Z,8.40
2018-07-22T17:04:20.739Z,7.12
2018-07-22T17:08:14.691Z,5.95
2018-07-22T17:12:08.414Z,6.10
2018-07-22T17:16:02.972Z,5.15
2018-07-22T17:19:56.898Z,6.40
2018-07-22T17:23:50.839Z,7.03
2018-07-22T17:27:44.818Z,9.87
2018-07-22T17:31:38.839Z,5.80
2018-07-22T17:35:32.887Z,6.28
2018-07-22T17:39:26.912Z,7.60
2018-07-22T17:43:21.026Z,6.37
2018-07-22T17:47:14.994Z,6.92
2018-07-22T17:51:09.259Z,6.47
2018-07-22T17:55:03.289Z,5.75
2018-07-22T17:58:57.522Z,5.50
2018-07-22T18:02:56.790Z,5.50
2018-07-22T18:06:50.684Z,6.20
2018-07-22T18:10:44.679Z,5.86
2018-07-22T18:14:38.912Z,5.87
2018-07-22T18:18:32.972Z,5.37
2018-07-22T18:22:27.147Z,5.00
2018-07-22T18:26:21.270Z,4.90
2018-07-22T18:30:15.262Z,5.33
2018-07-22T18:34:09.262Z,5.50
2018-07-22T18:38:03.336Z,5.70
2018-07-22T18:41:57.325Z,4.70
2018-07-22T18:45:51.532Z,5.20
2018-07-22T18:49:45.607Z,5.05
2018-07-22T18:53:39.256Z,5.40
2018-07-22T18:57:33.234Z,5.28
2018-07-22T19:01:27.291Z,6.37
2018-07-22T19:05:21.315Z,6.53
2018-07-22T19:09:15.308Z,5.27
2018-07-22T19:13:09.309Z,5.50
2018-07-22T19:17:03.265Z,7.93
2018-07-22T19:20:57.578Z,6.87
2018-07-22T19:24:52.608Z,7.53
2018-07-22T19:28:46.588Z,9.30
2018-07-22T19:32:40.610Z,6.33
2018-07-22T19:36:34.570Z,5.20
2018-07-22T19:40:28.673Z,5.87
2018-07-22T19:44:23.377Z,4.00
2018-07-22T19:48:17.514Z,5.77
2018-07-22T19:52:11.566Z,4.63
2018-07-22T19:56:05.855Z,4.10
2018-07-22T20:00:00.033Z,3.15
2018-07-22T20:03:54.019Z,5.37
2018-07-22T20:07:48.085Z,3.73
2018-07-22T20:11:42.791Z,3.43
2018-07-22T20:15:37.043Z,3.07
2018-07-22T20:19:31.422Z,3.40
2018-07-22T20:23:25.591Z,3.37
2018-07-22T20:27:19.857Z,2.70
2018-07-22T20:31:13.902Z,3.23
2018-07-22T20:35:08.136Z,2.70
2018-07-22T20:39:02.130Z,2.60
2018-07-22T20:42:56.274Z,2.40
2018-07-22T20:46:50.554Z,3.37
2018-07-22T20:50:44.755Z,2.80
2018-07-22T20:54:38.847Z,3.83
2018-07-22T20:58:32.890Z,2.60
2018-07-22T21:02:27.149Z,2.47
2018-07-22T21:06:21.572Z,2.53
2018-07-22T21:10:15.587Z,2.87
2018-07-22T21:14:09.586Z,2.57
2018-07-22T21:18:03.553Z,2.50
2018-07-22T21:21:57.521Z,2.50
2018-07-22T21:25:52.053Z,2.40
2018-07-22T21:29:46.270Z,2.63
2018-07-22T21:33:40.653Z,2.87
2018-07-22T21:37:34.862Z,3.00
2018-07-22T21:41:29.136Z,2.60
2018-07-22T21:45:23.381Z,2.97
2018-07-22T21:49:17.536Z,3.00
2018-07-22T21:53:11.701Z,2.97
2018-07-22T21:57:05.690Z,2.63
2018-07-22T22:00:59.697Z,3.20
2018-07-22T22:04:54.564Z,3.13
2018-07-22T22:08:48.659Z,2.67
2018-07-22T22:12:42.741Z,4.87
2018-07-22T22:16:36.719Z,3.10
2018-07-22T22:20:30.783Z,3.30
2018-07-22T22:24:24.879Z,2.83
2018-07-22T22:28:18.835Z,3.10
2018-07-22T22:32:12.843Z,2.67
2018-07-22T22:36:06.872Z,3.10
2018-07-22T22:40:00.912Z,3.40
2018-07-22T22:43:54.851Z,3.40
2018-07-22T22:47:48.811Z,4.27
2018-07-22T22:51:42.779Z,3.20
2018-07-22T22:55:36.718Z,3.03
2018-07-22T22:59:30.703Z,5.83
2018-07-22T23:03:24.637Z,3.23
2018-07-22T23:07:18.612Z,3.77
2018-07-22T23:11:12.519Z,3.53
2018-07-22T23:15:06.521Z,4.80
2018-07-22T23:19:00.222Z,3.40
2018-07-22T23:22:54.171Z,4.10
2018-07-22T23:26:47.901Z,4.00
2018-07-22T23:30:41.773Z,4.27
2018-07-22T23:34:35.944Z,6.13
2018-07-22T23:38:29.844Z,3.60
2018-07-22T23:42:23.808Z,3.87
2018-07-22T23:46:17.723Z,4.20
2018-07-22T23:50:11.669Z,3.83
2018-07-22T23:54:05.542Z,4.00
2018-07-22T23:57:59.434Z,4.00
